AUA12PQ LSZH-LOWW
Flight info
| Callsign | AUA12PQ |
|---|---|
| Flight time | 0h 50m |
| Altitude | 31000 |
| Route | DEGES3W DEGES Z2 XEBIX N871 BADVI L725 INPUL DCT NEMAL NEMAL2W |
| Aircraft | A320/M-SDE2E3FGHIJ1RWXY/LB1 |
Departure
| Time | 2026-05-05 19:41 |
|---|---|
| Airport | Zürich Airport (LSZH) |
Arrival
| Time | 2026-05-05 20:32 |
|---|---|
| Airport | Vienna International Airport (LOWW) |
| Time | Latitude | Longitude | Altitude | Speed | Heading |
|---|---|---|---|---|---|
| 2026-05-05 19:17 | 47.45432 | 8.55747 | 1412 ft | 0 kts | 186° |
| 2026-05-05 19:30 | 47.45444 | 8.55749 | 1407 ft | 4 kts | 182° |
| 2026-05-05 19:30 | 47.45471 | 8.55748 | 1420 ft | 4 kts | 168° |
| 2026-05-05 19:30 | 47.45496 | 8.55735 | 1416 ft | 4 kts | 145° |
| 2026-05-05 19:30 | 47.45511 | 8.55709 | 1410 ft | 2 kts | 97° |
| 2026-05-05 19:31 | 47.45511 | 8.55706 | 1409 ft | 0 kts | 95° |
| 2026-05-05 19:32 | 47.45511 | 8.55716 | 1411 ft | 5 kts | 96° |
| 2026-05-05 19:33 | 47.45503 | 8.55822 | 1414 ft | 11 kts | 96° |
| 2026-05-05 19:33 | 47.45496 | 8.55912 | 1407 ft | 10 kts | 96° |
| 2026-05-05 19:33 | 47.45483 | 8.56100 | 1407 ft | 20 kts | 96° |
| 2026-05-05 19:33 | 47.45507 | 8.56243 | 1412 ft | 11 kts | 23° |
| 2026-05-05 19:34 | 47.45568 | 8.56256 | 1414 ft | 7 kts | 6° |
| 2026-05-05 19:34 | 47.45605 | 8.56262 | 1412 ft | 4 kts | 6° |
| 2026-05-05 19:34 | 47.45618 | 8.56264 | 1413 ft | 0 kts | 6° |
| 2026-05-05 19:35 | 47.45738 | 8.56282 | 1420 ft | 12 kts | 6° |
| 2026-05-05 19:35 | 47.45797 | 8.56291 | 1416 ft | 5 kts | 6° |
| 2026-05-05 19:35 | 47.45800 | 8.56291 | 1416 ft | 0 kts | 6° |
| 2026-05-05 19:36 | 47.45807 | 8.56292 | 1417 ft | 3 kts | 6° |
| 2026-05-05 19:36 | 47.45884 | 8.56305 | 1414 ft | 19 kts | 6° |
| 2026-05-05 19:36 | 47.45971 | 8.56318 | 1412 ft | 3 kts | 6° |
| 2026-05-05 19:36 | 47.45987 | 8.56321 | 1412 ft | 6 kts | 6° |
| 2026-05-05 19:37 | 47.46010 | 8.56324 | 1411 ft | 0 kts | 6° |
| 2026-05-05 19:38 | 47.46032 | 8.56328 | 1413 ft | 12 kts | 6° |
| 2026-05-05 19:38 | 47.46120 | 8.56410 | 1411 ft | 10 kts | 47° |
| 2026-05-05 19:38 | 47.46159 | 8.56406 | 1412 ft | 7 kts | 316° |
| 2026-05-05 19:39 | 47.46163 | 8.56400 | 1411 ft | 0 kts | 317° |
| 2026-05-05 19:41 | 47.46233 | 8.56306 | 1408 ft | 46 kts | 317° |
| 2026-05-05 19:41 | 47.46670 | 8.55710 | 1398 ft | 121 kts | 317° |
| 2026-05-05 19:41 | 47.47438 | 8.54658 | 1436 ft | 172 kts | 316° |
| 2026-05-05 19:41 | 47.48287 | 8.53494 | 2253 ft | 164 kts | 315° |
| 2026-05-05 19:42 | 47.49118 | 8.52386 | 3054 ft | 162 kts | 314° |
| 2026-05-05 19:42 | 47.50049 | 8.51439 | 3730 ft | 164 kts | 325° |
| 2026-05-05 19:42 | 47.51047 | 8.50627 | 4390 ft | 163 kts | 324° |
| 2026-05-05 19:42 | 47.52029 | 8.49768 | 4926 ft | 169 kts | 316° |
| 2026-05-05 19:43 | 47.52880 | 8.48457 | 5231 ft | 185 kts | 298° |
| 2026-05-05 19:43 | 47.53423 | 8.46643 | 5544 ft | 202 kts | 278° |
| 2026-05-05 19:43 | 47.53484 | 8.44572 | 6292 ft | 202 kts | 259° |
| 2026-05-05 19:43 | 47.53052 | 8.42600 | 7094 ft | 203 kts | 244° |
| 2026-05-05 19:44 | 47.52446 | 8.40702 | 7846 ft | 205 kts | 244° |
| 2026-05-05 19:44 | 47.51744 | 8.38861 | 8648 ft | 207 kts | 227° |
| 2026-05-05 19:44 | 47.50496 | 8.37776 | 9434 ft | 216 kts | 195° |
| 2026-05-05 19:44 | 47.48970 | 8.37918 | 10147 ft | 231 kts | 164° |
| 2026-05-05 19:45 | 47.47621 | 8.39275 | 10490 ft | 243 kts | 133° |
| 2026-05-05 19:45 | 47.46906 | 8.41571 | 10861 ft | 254 kts | 103° |
| 2026-05-05 19:45 | 47.46686 | 8.44233 | 11229 ft | 272 kts | 99° |
| 2026-05-05 19:45 | 47.46481 | 8.47147 | 11554 ft | 297 kts | 99° |
| 2026-05-05 19:46 | 47.46267 | 8.50299 | 11860 ft | 321 kts | 98° |
| 2026-05-05 19:46 | 47.46038 | 8.53701 | 12129 ft | 344 kts | 98° |
| 2026-05-05 19:46 | 47.45789 | 8.57345 | 12341 ft | 368 kts | 98° |
| 2026-05-05 19:46 | 47.45520 | 8.61223 | 12499 ft | 391 kts | 98° |
| 2026-05-05 19:47 | 47.45234 | 8.65324 | 12602 ft | 412 kts | 98° |
| 2026-05-05 19:47 | 47.44939 | 8.69605 | 12943 ft | 425 kts | 98° |
| 2026-05-05 19:47 | 47.44639 | 8.73983 | 13529 ft | 431 kts | 98° |
| 2026-05-05 19:47 | 47.44381 | 8.78417 | 14091 ft | 435 kts | 95° |
| 2026-05-05 19:48 | 47.44238 | 8.82893 | 14702 ft | 437 kts | 93° |
| 2026-05-05 19:48 | 47.44170 | 8.87390 | 15290 ft | 440 kts | 92° |
| 2026-05-05 19:48 | 47.44133 | 8.91916 | 15845 ft | 442 kts | 92° |
| 2026-05-05 19:48 | 47.44096 | 8.96407 | 16372 ft | 445 kts | 92° |
| 2026-05-05 19:49 | 47.44041 | 9.00986 | 16896 ft | 447 kts | 93° |
| 2026-05-05 19:49 | 47.43991 | 9.04087 | 17251 ft | 448 kts | 93° |
| 2026-05-05 19:49 | 47.43868 | 9.10214 | 17896 ft | 451 kts | 94° |
| 2026-05-05 19:49 | 47.43761 | 9.14857 | 18343 ft | 454 kts | 94° |
| 2026-05-05 19:50 | 47.43646 | 9.19528 | 18724 ft | 456 kts | 94° |
| 2026-05-05 19:50 | 47.43527 | 9.24234 | 19085 ft | 459 kts | 94° |
| 2026-05-05 19:50 | 47.43409 | 9.28951 | 19444 ft | 462 kts | 94° |
| 2026-05-05 19:50 | 47.43335 | 9.33720 | 19798 ft | 466 kts | 90° |
| 2026-05-05 19:51 | 47.43716 | 9.38495 | 20146 ft | 470 kts | 84° |
| 2026-05-05 19:51 | 47.44187 | 9.43288 | 20469 ft | 473 kts | 83° |
| 2026-05-05 19:51 | 47.44666 | 9.48095 | 20791 ft | 475 kts | 83° |
| 2026-05-05 19:51 | 47.45152 | 9.52934 | 21096 ft | 477 kts | 84° |
| 2026-05-05 19:52 | 47.45643 | 9.57805 | 21393 ft | 480 kts | 84° |
| 2026-05-05 19:52 | 47.46133 | 9.62692 | 21663 ft | 482 kts | 84° |
| 2026-05-05 19:52 | 47.46621 | 9.67601 | 21896 ft | 486 kts | 84° |
| 2026-05-05 19:52 | 47.47111 | 9.72567 | 22157 ft | 488 kts | 84° |
| 2026-05-05 19:53 | 47.47601 | 9.77534 | 22419 ft | 490 kts | 84° |
| 2026-05-05 19:53 | 47.48090 | 9.82548 | 22663 ft | 492 kts | 84° |
| 2026-05-05 19:53 | 47.48574 | 9.87562 | 22915 ft | 494 kts | 84° |
| 2026-05-05 19:53 | 47.49057 | 9.92617 | 23161 ft | 496 kts | 84° |
| 2026-05-05 19:54 | 47.49538 | 9.97673 | 23391 ft | 498 kts | 84° |
| 2026-05-05 19:54 | 47.50021 | 10.02753 | 23571 ft | 499 kts | 84° |
| 2026-05-05 19:54 | 47.50507 | 10.07858 | 23686 ft | 501 kts | 84° |
| 2026-05-05 19:54 | 47.50991 | 10.12977 | 23809 ft | 505 kts | 85° |
| 2026-05-05 19:55 | 47.51476 | 10.18140 | 23941 ft | 508 kts | 85° |
| 2026-05-05 19:55 | 47.51962 | 10.23323 | 24070 ft | 509 kts | 85° |
| 2026-05-05 19:55 | 47.52447 | 10.28517 | 24191 ft | 510 kts | 85° |
| 2026-05-05 19:55 | 47.52930 | 10.33730 | 24315 ft | 511 kts | 85° |
| 2026-05-05 19:56 | 47.53405 | 10.38873 | 24433 ft | 512 kts | 85° |
| 2026-05-05 19:56 | 47.53883 | 10.44089 | 24564 ft | 512 kts | 85° |
| 2026-05-05 19:56 | 47.54374 | 10.49290 | 24797 ft | 509 kts | 84° |
| 2026-05-05 19:56 | 47.54980 | 10.54450 | 24932 ft | 510 kts | 82° |
| 2026-05-05 19:57 | 47.55700 | 10.59595 | 25042 ft | 511 kts | 80° |
| 2026-05-05 19:57 | 47.56232 | 10.63076 | 25133 ft | 512 kts | 80° |
| 2026-05-05 19:57 | 47.57301 | 10.69873 | 25342 ft | 512 kts | 79° |
| 2026-05-05 19:57 | 47.58088 | 10.75004 | 25495 ft | 512 kts | 80° |
| 2026-05-05 19:58 | 47.58844 | 10.80167 | 25675 ft | 511 kts | 81° |
| 2026-05-05 19:58 | 47.59568 | 10.85331 | 25835 ft | 511 kts | 81° |
| 2026-05-05 19:58 | 47.60273 | 10.90492 | 26005 ft | 511 kts | 82° |
| 2026-05-05 19:58 | 47.60971 | 10.95660 | 26137 ft | 511 kts | 81° |
| 2026-05-05 19:59 | 47.61666 | 11.00830 | 26291 ft | 512 kts | 82° |
| 2026-05-05 19:59 | 47.62362 | 11.06008 | 26464 ft | 512 kts | 81° |
| 2026-05-05 19:59 | 47.63060 | 11.11177 | 26651 ft | 512 kts | 81° |
| 2026-05-05 19:59 | 47.63763 | 11.16360 | 26825 ft | 512 kts | 81° |
| 2026-05-05 20:00 | 47.64464 | 11.21533 | 27025 ft | 512 kts | 81° |
| 2026-05-05 20:00 | 47.65165 | 11.26713 | 27218 ft | 512 kts | 81° |
| 2026-05-05 20:00 | 47.65863 | 11.31895 | 27404 ft | 512 kts | 82° |
| 2026-05-05 20:00 | 47.66563 | 11.37086 | 27652 ft | 511 kts | 82° |
| 2026-05-05 20:01 | 47.67248 | 11.42182 | 27913 ft | 509 kts | 81° |
| 2026-05-05 20:01 | 47.67935 | 11.47329 | 28114 ft | 510 kts | 81° |
| 2026-05-05 20:01 | 47.68621 | 11.52491 | 28299 ft | 510 kts | 82° |
| 2026-05-05 20:01 | 47.69309 | 11.57665 | 28517 ft | 510 kts | 82° |
| 2026-05-05 20:02 | 47.69993 | 11.62835 | 28734 ft | 510 kts | 82° |
| 2026-05-05 20:02 | 47.70672 | 11.67992 | 28951 ft | 510 kts | 82° |
| 2026-05-05 20:02 | 47.71346 | 11.73161 | 29175 ft | 510 kts | 82° |
| 2026-05-05 20:02 | 47.72015 | 11.78323 | 29402 ft | 510 kts | 82° |
| 2026-05-05 20:03 | 47.72685 | 11.83495 | 29630 ft | 509 kts | 82° |
| 2026-05-05 20:03 | 47.73351 | 11.88653 | 29811 ft | 508 kts | 82° |
| 2026-05-05 20:03 | 47.74012 | 11.93789 | 30015 ft | 506 kts | 82° |
| 2026-05-05 20:03 | 47.74670 | 11.98913 | 30209 ft | 505 kts | 82° |
| 2026-05-05 20:04 | 47.75327 | 12.04040 | 30401 ft | 504 kts | 82° |
| 2026-05-05 20:04 | 47.75976 | 12.09142 | 30596 ft | 503 kts | 82° |
| 2026-05-05 20:04 | 47.76623 | 12.14251 | 30780 ft | 502 kts | 82° |
| 2026-05-05 20:05 | 47.77908 | 12.24458 | 30850 ft | 503 kts | 82° |
| 2026-05-05 20:05 | 47.79186 | 12.34681 | 30850 ft | 502 kts | 82° |
| 2026-05-05 20:06 | 47.80042 | 12.44943 | 30847 ft | 499 kts | 89° |
| 2026-05-05 20:06 | 47.80521 | 12.55227 | 30845 ft | 498 kts | 90° |
| 2026-05-05 20:07 | 47.80960 | 12.65451 | 30844 ft | 498 kts | 90° |
| 2026-05-05 20:07 | 47.81399 | 12.75732 | 30815 ft | 498 kts | 89° |
| 2026-05-05 20:08 | 47.81839 | 12.85990 | 30828 ft | 497 kts | 90° |
| 2026-05-05 20:08 | 47.82271 | 12.96247 | 30838 ft | 497 kts | 90° |
| 2026-05-05 20:09 | 47.82691 | 13.06515 | 30847 ft | 496 kts | 90° |
| 2026-05-05 20:09 | 47.83102 | 13.16767 | 30846 ft | 496 kts | 90° |
| 2026-05-05 20:10 | 47.83497 | 13.26999 | 30832 ft | 495 kts | 90° |
| 2026-05-05 20:10 | 47.83891 | 13.37223 | 30841 ft | 495 kts | 90° |
| 2026-05-05 20:11 | 47.84279 | 13.47444 | 30844 ft | 494 kts | 90° |
| 2026-05-05 20:11 | 47.84650 | 13.57593 | 30842 ft | 494 kts | 90° |
| 2026-05-05 20:12 | 47.85049 | 13.67814 | 30818 ft | 494 kts | 86° |
| 2026-05-05 20:12 | 47.85822 | 13.72804 | 30825 ft | 498 kts | 72° |
| 2026-05-05 20:12 | 47.86633 | 13.76006 | 30827 ft | 498 kts | 71° |
| 2026-05-05 20:13 | 47.89135 | 13.85625 | 30833 ft | 498 kts | 70° |
| 2026-05-05 20:13 | 47.92067 | 13.96798 | 30823 ft | 498 kts | 70° |
| 2026-05-05 20:14 | 47.94567 | 14.06423 | 30817 ft | 498 kts | 70° |
| 2026-05-05 20:14 | 47.96644 | 14.14501 | 30792 ft | 497 kts | 70° |
| 2026-05-05 20:15 | 47.99112 | 14.24127 | 30813 ft | 496 kts | 70° |
| 2026-05-05 20:15 | 48.01560 | 14.33672 | 30817 ft | 495 kts | 70° |
| 2026-05-05 20:16 | 48.04010 | 14.43280 | 30815 ft | 495 kts | 70° |
| 2026-05-05 20:16 | 48.06444 | 14.52889 | 30814 ft | 494 kts | 70° |
| 2026-05-05 20:17 | 48.08867 | 14.62511 | 30807 ft | 494 kts | 70° |
| 2026-05-05 20:17 | 48.11287 | 14.72122 | 30792 ft | 493 kts | 70° |
| 2026-05-05 20:18 | 48.13697 | 14.81735 | 30796 ft | 493 kts | 70° |
| 2026-05-05 20:18 | 48.16094 | 14.91344 | 30785 ft | 491 kts | 71° |
| 2026-05-05 20:18 | 48.17278 | 14.96111 | 30027 ft | 488 kts | 71° |
| 2026-05-05 20:19 | 48.18463 | 15.00898 | 28718 ft | 491 kts | 71° |
| 2026-05-05 20:19 | 48.19652 | 15.05705 | 27730 ft | 494 kts | 71° |
| 2026-05-05 20:19 | 48.20848 | 15.10545 | 26948 ft | 496 kts | 71° |
| 2026-05-05 20:19 | 48.22031 | 15.15345 | 26171 ft | 497 kts | 71° |
| 2026-05-05 20:20 | 48.23245 | 15.20276 | 25419 ft | 498 kts | 71° |
| 2026-05-05 20:20 | 48.24429 | 15.25099 | 24687 ft | 499 kts | 71° |
| 2026-05-05 20:20 | 48.25311 | 15.30091 | 23976 ft | 495 kts | 82° |
| 2026-05-05 20:20 | 48.25861 | 15.35174 | 23277 ft | 491 kts | 83° |
| 2026-05-05 20:21 | 48.26393 | 15.40190 | 22463 ft | 486 kts | 83° |
| 2026-05-05 20:21 | 48.26916 | 15.45179 | 21682 ft | 480 kts | 83° |
| 2026-05-05 20:21 | 48.27427 | 15.50103 | 20960 ft | 475 kts | 83° |
| 2026-05-05 20:21 | 48.27932 | 15.54976 | 20260 ft | 470 kts | 83° |
| 2026-05-05 20:22 | 48.28431 | 15.59808 | 19564 ft | 466 kts | 83° |
| 2026-05-05 20:22 | 48.28924 | 15.64601 | 18874 ft | 462 kts | 83° |
| 2026-05-05 20:22 | 48.29413 | 15.69356 | 18218 ft | 459 kts | 82° |
| 2026-05-05 20:22 | 48.29895 | 15.74070 | 17499 ft | 455 kts | 83° |
| 2026-05-05 20:23 | 48.30369 | 15.78740 | 16764 ft | 449 kts | 83° |
| 2026-05-05 20:23 | 48.30836 | 15.83351 | 16049 ft | 444 kts | 83° |
| 2026-05-05 20:23 | 48.31297 | 15.87918 | 15347 ft | 439 kts | 83° |
| 2026-05-05 20:23 | 48.31751 | 15.92426 | 14664 ft | 434 kts | 83° |
| 2026-05-05 20:24 | 48.32137 | 15.96898 | 13985 ft | 429 kts | 88° |
| 2026-05-05 20:24 | 48.32224 | 16.01347 | 13343 ft | 423 kts | 90° |
| 2026-05-05 20:24 | 48.32269 | 16.05720 | 12652 ft | 417 kts | 90° |
| 2026-05-05 20:24 | 48.32303 | 16.10045 | 11906 ft | 412 kts | 90° |
| 2026-05-05 20:25 | 48.32347 | 16.14338 | 11126 ft | 409 kts | 90° |
| 2026-05-05 20:25 | 48.32398 | 16.18535 | 10363 ft | 406 kts | 91° |
| 2026-05-05 20:25 | 48.32445 | 16.22750 | 9586 ft | 399 kts | 91° |
| 2026-05-05 20:25 | 48.32330 | 16.26866 | 8325 ft | 392 kts | 95° |
| 2026-05-05 20:26 | 48.32133 | 16.30927 | 7227 ft | 385 kts | 95° |
| 2026-05-05 20:26 | 48.31909 | 16.34894 | 6174 ft | 375 kts | 95° |
| 2026-05-05 20:26 | 48.31666 | 16.38768 | 4986 ft | 368 kts | 95° |
| 2026-05-05 20:26 | 48.31269 | 16.42510 | 3865 ft | 357 kts | 108° |
| 2026-05-05 20:27 | 48.30495 | 16.45923 | 3353 ft | 330 kts | 112° |
| 2026-05-05 20:27 | 48.29424 | 16.48732 | 3159 ft | 293 kts | 133° |
| 2026-05-05 20:27 | 48.28065 | 16.50743 | 3031 ft | 257 kts | 152° |
| 2026-05-05 20:27 | 48.26532 | 16.51643 | 2999 ft | 221 kts | 169° |
| 2026-05-05 20:28 | 48.25105 | 16.52250 | 2998 ft | 205 kts | 169° |
| 2026-05-05 20:28 | 48.23777 | 16.52813 | 2930 ft | 193 kts | 169° |
| 2026-05-05 20:28 | 48.22517 | 16.53346 | 2733 ft | 188 kts | 169° |
| 2026-05-05 20:28 | 48.21293 | 16.53867 | 2500 ft | 178 kts | 169° |
| 2026-05-05 20:29 | 48.20174 | 16.54345 | 2312 ft | 156 kts | 170° |
| 2026-05-05 20:29 | 48.19199 | 16.54761 | 2099 ft | 136 kts | 170° |
| 2026-05-05 20:29 | 48.18329 | 16.55129 | 1932 ft | 125 kts | 169° |
| 2026-05-05 20:29 | 48.17509 | 16.55476 | 1767 ft | 120 kts | 168° |
| 2026-05-05 20:30 | 48.16704 | 16.55815 | 1618 ft | 121 kts | 167° |
| 2026-05-05 20:30 | 48.15881 | 16.56162 | 1437 ft | 125 kts | 166° |
| 2026-05-05 20:30 | 48.15044 | 16.56518 | 1283 ft | 124 kts | 167° |
| 2026-05-05 20:30 | 48.14224 | 16.56867 | 1108 ft | 121 kts | 166° |
| 2026-05-05 20:31 | 48.13413 | 16.57208 | 946 ft | 121 kts | 165° |
| 2026-05-05 20:31 | 48.12608 | 16.57549 | 774 ft | 121 kts | 164° |
| 2026-05-05 20:31 | 48.11794 | 16.57894 | 634 ft | 122 kts | 165° |
| 2026-05-05 20:31 | 48.11088 | 16.58193 | 616 ft | 69 kts | 164° |
| 2026-05-05 20:32 | 48.10791 | 16.58289 | 609 ft | 36 kts | 179° |
| 2026-05-05 20:32 | 48.10586 | 16.58237 | 609 ft | 24 kts | 194° |
| 2026-05-05 20:32 | 48.10470 | 16.58116 | 617 ft | 16 kts | 251° |
| 2026-05-05 20:32 | 48.10538 | 16.58009 | 621 ft | 19 kts | 344° |
| 2026-05-05 20:33 | 48.10706 | 16.57937 | 616 ft | 30 kts | 343° |
| 2026-05-05 20:33 | 48.10878 | 16.57866 | 617 ft | 22 kts | 345° |
| 2026-05-05 20:33 | 48.11009 | 16.57805 | 618 ft | 20 kts | 333° |
| 2026-05-05 20:33 | 48.11094 | 16.57628 | 613 ft | 23 kts | 296° |
| 2026-05-05 20:34 | 48.11171 | 16.57389 | 623 ft | 27 kts | 295° |
| 2026-05-05 20:34 | 48.11251 | 16.57146 | 617 ft | 24 kts | 296° |
| 2026-05-05 20:34 | 48.11319 | 16.56937 | 612 ft | 20 kts | 296° |
| 2026-05-05 20:34 | 48.11401 | 16.56830 | 621 ft | 15 kts | 8° |
| 2026-05-05 20:35 | 48.11500 | 16.56897 | 614 ft | 14 kts | 27° |
| 2026-05-05 20:35 | 48.11576 | 16.56902 | 623 ft | 11 kts | 327° |
| 2026-05-05 20:35 | 48.11620 | 16.56793 | 620 ft | 13 kts | 296° |
| 2026-05-05 20:35 | 48.11678 | 16.56769 | 614 ft | 6 kts | 24° |
| 2026-05-05 20:36 | 48.11692 | 16.56778 | 620 ft | 0 kts | 25° |
| 2026-05-05 20:36 | 48.11705 | 16.56788 | 616 ft | 0 kts | 25° |